Time;durP1;ratioP1;P1;durP2;ratioP2;P2;SDS_P1;SDS_P2;PMS_P1;PMS_P2;Temp;Humidity;BMP_temperature;BMP_pressure;BME280_temperature;BME280_humidity;BME280_pressure;Samples;Min_cycle;Max_cycle;Signal;HPM_P1;HPM_P2
2022/01/23 00:01:26;;;;;;;14.60;10.60;;;7.70;85.10;7.80;97811.00;;;;5012571;28;20805;-85
2022/01/23 00:03:53;;;;;;;15.07;10.97;;;7.70;85.10;7.70;97807.00;;;;5018320;28;20201;-85
2022/01/23 00:06:20;;;;;;;14.80;10.07;;;7.70;84.90;7.70;97802.00;;;;5032367;28;20193;-85
2022/01/23 00:08:47;;;;;;;15.03;10.60;;;7.70;85.60;7.80;97802.00;;;;5032485;28;20275;-85
2022/01/23 00:11:16;;;;;;;13.87;10.43;;;7.70;85.00;7.80;97807.00;;;;5032248;28;20671;-85
2022/01/23 00:19:20;;;;;;;13.53;10.23;;;7.80;85.30;7.80;97805.00;;;;4970046;28;20227;-85
2022/01/23 00:21:51;;;;;;;13.73;10.70;;;7.70;85.10;7.80;97808.00;;;;5017789;28;20200;-85
2022/01/23 00:32:34;;;;;;;12.30;9.37;;;7.80;85.10;7.90;97808.00;;;;5032492;28;20524;-85
2022/01/23 00:35:01;;;;;;;12.80;9.83;;;7.80;85.00;7.80;97807.00;;;;5031761;28;20198;-85
2022/01/23 00:37:28;;;;;;;12.83;9.93;;;7.80;85.10;7.80;97807.00;;;;5036144;28;20209;-85
2022/01/23 00:39:55;;;;;;;13.30;10.43;;;7.80;86.00;7.90;97803.00;;;;5026850;28;20310;-86
2022/01/23 00:42:23;;;;;;;16.57;10.23;;;8.30;85.40;7.90;97807.00;;;;5012557;28;20198;-85
2022/01/23 00:44:57;;;;;;;12.07;10.00;;;7.80;85.10;7.90;97807.00;;;;5012203;28;20456;-86
2022/01/23 00:47:24;;;;;;;13.00;10.27;;;7.80;85.00;7.90;97799.00;;;;5014221;28;20204;-85
2022/01/23 00:49:51;;;;;;;13.40;10.40;;;7.80;85.00;7.90;97798.00;;;;5031813;28;20217;-86
2022/01/23 00:52:18;;;;;;;13.13;10.23;;;7.80;84.80;7.90;97801.00;;;;5032084;28;20245;-86
2022/01/23 00:54:45;;;;;;;11.80;9.30;;;7.80;85.10;7.90;97803.00;;;;5032032;28;20205;-86
2022/01/23 00:57:12;;;;;;;14.13;10.30;;;7.90;85.00;7.90;97802.00;;;;5032348;28;20207;-85
2022/01/23 00:59:41;;;;;;;12.63;9.70;;;7.80;85.30;7.90;97800.00;;;;5031866;28;20221;-85
2022/01/23 01:02:08;;;;;;;11.30;9.23;;;7.80;85.10;7.90;97803.00;;;;5032018;28;20666;-86
2022/01/23 01:04:35;;;;;;;12.13;9.17;;;7.80;84.80;7.90;97802.00;;;;5032089;28;20189;-86
2022/01/23 01:07:02;;;;;;;11.80;9.60;;;7.90;84.90;7.90;97806.00;;;;5031939;28;20200;-86
2022/01/23 01:09:30;;;;;;;11.57;9.50;;;7.80;84.90;7.90;97810.00;;;;5031065;28;20225;-86
2022/01/23 01:12:01;;;;;;;10.93;9.40;;;7.90;85.00;7.90;97814.00;;;;5031771;28;20197;-85
2022/01/23 01:17:21;;;;;;;12.00;9.20;;;7.90;84.70;7.90;97824.00;;;;5013899;28;20209;-86
2022/01/23 01:30:57;;;;;;;11.00;9.47;;;7.90;84.80;8.00;97827.00;;;;5015503;28;20260;-86
2022/01/23 01:33:36;;;;;;;13.03;9.67;;;7.90;84.80;8.00;97827.00;;;;5015938;28;20198;-86
2022/01/23 01:36:17;;;;;;;14.27;10.47;;;7.90;85.00;8.00;97822.00;;;;5023471;28;20198;-86
2022/01/23 01:38:45;;;;;;;11.40;9.50;;;7.90;84.70;8.00;97830.00;;;;5035690;28;20265;-86
2022/01/23 01:41:13;;;;;;;11.33;9.20;;;7.90;84.50;8.00;97832.00;;;;5035712;28;20574;-85
2022/01/23 01:43:40;;;;;;;11.70;9.53;;;7.90;84.50;8.00;97829.00;;;;5035973;28;20567;-86
2022/01/23 01:46:07;;;;;;;12.43;9.83;;;7.90;84.80;8.00;97827.00;;;;5021724;28;20198;-86
2022/01/23 01:48:36;;;;;;;12.20;9.00;;;7.90;84.80;8.00;97821.00;;;;5015763;28;20212;-85
2022/01/23 01:51:06;;;;;;;11.20;9.20;;;7.90;84.50;8.00;97825.00;;;;5033749;28;20589;-86
2022/01/23 01:53:33;;;;;;;11.97;9.43;;;7.90;84.60;8.00;97828.00;;;;5035271;28;20232;-86
2022/01/23 01:56:00;;;;;;;12.40;10.00;;;7.90;84.50;8.00;97829.00;;;;5032031;28;20659;-85
2022/01/23 01:58:56;;;;;;;11.73;9.20;;;7.90;84.40;8.00;97826.00;;;;5015010;28;20198;-86
2022/01/23 02:09:41;;;;;;;11.40;8.87;;;8.00;84.70;8.00;97831.00;;;;5017818;28;20248;-86
2022/01/23 02:12:32;;;;;;;12.17;9.10;;;8.00;84.60;8.00;97838.00;;;;5014996;28;20206;-85
2022/01/23 02:15:26;;;;;;;12.27;8.93;;;8.00;84.30;8.00;97832.00;;;;5014299;28;20265;-86
2022/01/23 02:17:59;;;;;;;10.20;8.70;;;8.00;84.40;8.00;97834.00;;;;5015754;28;20198;-85
2022/01/23 02:23:29;;;;;;;11.97;9.60;;;8.00;84.20;8.00;97830.00;;;;5033677;28;20204;-85
2022/01/23 02:50:47;;;;;;;13.33;9.80;;;8.00;84.40;8.10;97828.00;;;;5014664;28;20280;-86
2022/01/23 02:56:03;;;;;;;13.60;10.33;;;8.00;84.20;8.00;97825.00;;;;5027259;28;20324;-85
2022/01/23 02:58:36;;;;;;;15.53;10.33;;;8.00;84.20;8.00;97831.00;;;;5020933;28;20205;-86
2022/01/23 03:01:15;;;;;;;13.80;10.33;;;8.00;84.10;8.00;97824.00;;;;5019719;28;20212;-85
2022/01/23 03:03:45;;;;;;;13.20;9.57;;;8.00;84.10;8.00;97828.00;;;;5036820;28;20474;-86
2022/01/23 03:06:24;;;;;;;13.10;9.70;;;7.90;84.10;8.00;97822.00;;;;5034067;28;20217;-85
2022/01/23 03:09:49;;;;;;;13.90;10.00;;;7.90;84.20;8.00;97819.00;;;;5013838;28;20228;-86
2022/01/23 03:12:09;;;;;;;12.77;9.93;;;7.90;84.00;8.00;97823.00;;;;5022630;28;20224;-86
2022/01/23 03:14:44;;;;;;;11.20;9.30;;;7.90;84.10;8.00;97822.00;;;;5034094;28;20296;-85
2022/01/23 03:25:58;;;;;;;11.37;9.37;;;7.90;84.10;8.00;97817.00;;;;5033183;28;20627;-86
2022/01/23 03:28:35;;;;;;;13.73;10.07;;;7.90;84.20;8.00;97810.00;;;;5016318;28;20704;-86
2022/01/23 03:31:09;;;;;;;13.50;9.40;;;7.90;84.20;8.00;97809.00;;;;5013530;28;20197;-85
2022/01/23 03:33:39;;;;;;;13.20;10.07;;;7.90;84.20;8.00;97797.00;;;;5012887;28;20201;-85
2022/01/23 03:36:07;;;;;;;13.67;10.00;;;7.90;84.10;8.00;97811.00;;;;5013725;28;20209;-85
2022/01/23 03:38:34;;;;;;;13.07;10.03;;;7.90;84.20;8.00;97827.00;;;;5013307;28;20386;-86
2022/01/23 03:41:03;;;;;;;13.57;10.17;;;7.90;84.20;8.00;97826.00;;;;5027765;28;20193;-86
2022/01/23 03:43:34;;;;;;;12.20;9.63;;;7.90;84.20;8.00;97830.00;;;;5032997;28;20197;-86
2022/01/23 03:46:21;;;;;;;13.07;9.80;;;8.10;84.40;8.00;97830.00;;;;5032948;28;20206;-85
2022/01/23 03:51:36;;;;;;;14.47;10.20;;;7.90;84.30;8.00;97836.00;;;;5033361;28;20203;-85
2022/01/23 03:54:03;;;;;;;13.70;10.13;;;8.00;84.40;8.00;97831.00;;;;5032892;28;20651;-85
2022/01/23 03:56:31;;;;;;;12.33;9.83;;;8.00;84.30;8.10;97836.00;;;;5032217;28;20284;-85
2022/01/23 03:58:59;;;;;;;13.90;10.43;;;8.00;84.10;8.00;97844.00;;;;5032592;28;20718;-85
2022/01/23 04:01:26;;;;;;;15.87;10.97;;;8.00;84.00;8.00;97847.00;;;;5032380;28;20194;-85
2022/01/23 04:03:56;;;;;;;12.33;9.73;;;8.00;84.10;8.00;97841.00;;;;5028345;28;20208;-86
2022/01/23 04:06:24;;;;;;;13.50;9.97;;;8.00;84.10;8.10;97837.00;;;;5012979;28;20620;-86
2022/01/23 04:08:51;;;;;;;12.77;9.63;;;8.00;84.20;8.00;97841.00;;;;5018866;28;20698;-86
2022/01/23 04:11:18;;;;;;;12.10;9.77;;;8.00;84.10;8.10;97838.00;;;;5012679;28;20197;-85
2022/01/23 04:13:51;;;;;;;13.37;10.53;;;8.00;83.90;8.10;97831.00;;;;5029889;28;20198;-85
2022/01/23 04:19:14;;;;;;;13.97;10.03;;;7.90;83.80;8.00;97831.00;;;;5030791;28;20733;-85
2022/01/23 04:32:59;;;;;;;12.30;8.97;;;8.00;83.90;8.00;97849.00;;;;5021249;28;20252;-85
2022/01/23 04:45:09;;;;;;;12.57;9.77;;;7.90;83.90;8.00;97852.00;;;;5012858;28;20213;-85
2022/01/23 04:47:24;;;;;;;13.07;9.80;;;7.90;84.10;8.00;97874.00;;;;5030518;28;20708;-85
2022/01/23 05:00:53;;;;;;;14.90;10.30;;;7.90;83.90;8.00;97841.00;;;;5016548;28;20232;-86
2022/01/23 05:06:10;;;;;;;14.73;10.30;;;7.90;84.10;8.00;97846.00;;;;5000132;28;20186;-86
2022/01/23 05:08:38;;;;;;;16.23;10.60;;;7.90;84.00;8.00;97833.00;;;;5036223;28;20262;-86
2022/01/23 05:11:11;;;;;;;14.13;10.43;;;7.90;84.10;8.00;97827.00;;;;5035704;28;20201;-86
2022/01/23 05:13:38;;;;;;;15.43;11.03;;;7.90;84.10;8.00;97823.00;;;;5035751;28;20232;-86
2022/01/23 05:16:06;;;;;;;14.43;10.47;;;7.90;83.90;8.00;97817.00;;;;5033546;28;20204;-86
2022/01/23 05:18:36;;;;;;;15.20;10.17;;;7.90;83.90;8.00;97824.00;;;;5034949;28;20302;-85
2022/01/23 05:21:14;;;;;;;14.73;10.73;;;7.90;83.80;8.00;97834.00;;;;5034475;28;20221;-86
2022/01/23 05:23:42;;;;;;;15.30;10.83;;;7.90;83.80;8.00;97843.00;;;;5035742;28;20290;-85
2022/01/23 05:26:09;;;;;;;13.43;10.43;;;7.90;83.90;8.00;97846.00;;;;5035595;28;20199;-85
2022/01/23 05:28:36;;;;;;;15.20;11.10;;;7.90;84.10;8.00;97854.00;;;;5037563;28;20292;-85
2022/01/23 05:31:03;;;;;;;17.10;11.27;;;7.90;83.90;8.00;97860.00;;;;5034083;28;20205;-85
2022/01/23 05:33:30;;;;;;;14.63;10.53;;;7.90;84.10;8.00;97850.00;;;;5035270;28;20197;-85
2022/01/23 05:35:59;;;;;;;15.87;10.83;;;7.90;84.10;8.00;97853.00;;;;5035237;28;20229;-85
2022/01/23 05:38:26;;;;;;;13.10;9.90;;;8.50;84.20;8.00;97838.00;;;;5034174;28;20201;-85
2022/01/23 05:40:57;;;;;;;13.87;10.77;;;7.90;83.70;8.00;97839.00;;;;5034911;28;20225;-85
2022/01/23 05:43:25;;;;;;;15.80;10.23;;;7.90;83.80;8.00;97843.00;;;;5033353;28;20201;-85
2022/01/23 05:45:53;;;;;;;16.60;10.87;;;7.90;83.70;8.00;97848.00;;;;5023427;28;20201;-85
2022/01/23 05:48:21;;;;;;;15.30;10.60;;;7.90;83.60;8.00;97853.00;;;;5015277;28;20194;-86
2022/01/23 05:50:49;;;;;;;14.97;10.40;;;7.90;83.60;8.00;97866.00;;;;5015168;28;20226;-85
2022/01/23 05:53:18;;;;;;;13.30;10.10;;;7.90;83.70;8.00;97860.00;;;;5015211;28;20285;-85
2022/01/23 05:55:45;;;;;;;14.00;10.20;;;7.90;83.90;8.00;97857.00;;;;5014985;28;20194;-86
2022/01/23 05:58:12;;;;;;;16.17;11.17;;;7.90;83.80;8.00;97879.00;;;;5029903;28;20194;-85
2022/01/23 06:00:39;;;;;;;14.93;10.10;;;7.90;83.80;8.00;97885.00;;;;5034471;28;20232;-85
2022/01/23 06:03:06;;;;;;;13.67;10.30;;;7.90;83.90;8.00;97880.00;;;;5033578;28;20217;-85
2022/01/23 06:05:33;;;;;;;13.40;10.13;;;7.80;83.70;7.90;97878.00;;;;5034430;28;20208;-85
2022/01/23 06:08:00;;;;;;;14.37;10.60;;;7.80;83.50;8.00;97880.00;;;;5034758;28;20201;-85
2022/01/23 06:10:35;;;;;;;16.83;11.37;;;7.90;83.70;7.90;97875.00;;;;5033476;28;20251;-85
2022/01/23 06:13:03;;;;;;;14.07;10.67;;;7.90;83.70;7.90;97886.00;;;;5034338;28;20307;-85
2022/01/23 06:15:30;;;;;;;13.60;9.33;;;7.90;83.70;7.90;97882.00;;;;5034276;28;20267;-85
2022/01/23 06:17:57;;;;;;;12.77;9.87;;;7.90;83.70;7.90;97882.00;;;;5033735;28;20296;-85
2022/01/23 06:20:24;;;;;;;15.07;10.60;;;7.90;83.80;7.90;97880.00;;;;5034287;28;20229;-85
2022/01/23 06:22:51;;;;;;;15.90;11.80;;;7.90;83.70;7.90;97893.00;;;;5033755;28;20666;-85
2022/01/23 06:25:20;;;;;;;15.33;10.80;;;7.80;83.70;7.90;97892.00;;;;5028010;28;20206;-85
2022/01/23 06:27:49;;;;;;;15.13;10.73;;;7.80;83.80;7.90;97890.00;;;;5026724;28;20249;-85
2022/01/23 06:30:17;;;;;;;15.23;10.50;;;7.80;83.80;7.90;97880.00;;;;5014233;28;20218;-85
2022/01/23 06:32:44;;;;;;;15.00;10.47;;;7.80;83.80;8.00;97882.00;;;;5019051;28;20205;-85
2022/01/23 06:35:12;;;;;;;15.47;10.43;;;7.90;84.00;7.90;97887.00;;;;5030775;28;20559;-85
2022/01/23 06:37:39;;;;;;;15.13;10.63;;;7.90;83.80;7.90;97882.00;;;;5016014;28;20220;-85
2022/01/23 06:40:08;;;;;;;13.90;10.43;;;7.90;83.80;7.90;97880.00;;;;5020544;28;20231;-85
2022/01/23 06:42:35;;;;;;;15.27;10.73;;;7.90;83.80;7.90;97881.00;;;;5039772;28;20292;-85
2022/01/23 06:45:04;;;;;;;12.60;10.13;;;7.90;84.50;7.90;97881.00;;;;5023739;28;20575;-85
2022/01/23 06:47:31;;;;;;;14.40;10.30;;;7.90;83.80;7.90;97891.00;;;;5014095;28;20198;-85
2022/01/23 06:49:58;;;;;;;16.83;11.20;;;7.90;83.80;7.90;97890.00;;;;5014029;28;20226;-85
2022/01/23 06:52:25;;;;;;;14.30;10.90;;;7.90;83.90;7.90;97888.00;;;;5013813;28;20284;-85
2022/01/23 06:54:52;;;;;;;15.73;10.60;;;7.90;84.00;7.90;97895.00;;;;5023223;28;20201;-85
2022/01/23 06:57:20;;;;;;;16.07;11.30;;;7.90;83.80;7.90;97885.00;;;;5033774;28;20197;-85
2022/01/23 06:59:47;;;;;;;15.30;10.50;;;7.90;83.80;7.90;97891.00;;;;5033502;28;20603;-85
2022/01/23 07:02:16;;;;;;;14.73;10.93;;;7.90;83.90;7.90;97885.00;;;;5030632;28;20201;-85
2022/01/23 07:04:43;;;;;;;14.20;10.57;;;7.90;84.00;7.90;97887.00;;;;5013849;28;20664;-85
2022/01/23 07:07:10;;;;;;;13.53;10.43;;;7.90;83.80;7.90;97894.00;;;;5014132;28;20194;-85
2022/01/23 07:09:37;;;;;;;13.03;10.23;;;7.90;83.80;8.00;97903.00;;;;5026820;28;20213;-85
2022/01/23 07:12:06;;;;;;;14.63;10.40;;;7.90;84.00;8.00;97909.00;;;;5033430;28;20567;-85
2022/01/23 07:14:33;;;;;;;15.23;11.27;;;7.90;84.20;8.00;97923.00;;;;5025833;28;20202;-85
2022/01/23 07:17:00;;;;;;;14.27;10.60;;;7.90;84.00;8.10;97910.00;;;;5013621;28;20573;-85
2022/01/23 07:19:28;;;;;;;14.77;10.80;;;7.90;84.10;8.10;97901.00;;;;5018921;28;20217;-85
2022/01/23 07:21:55;;;;;;;15.93;11.83;;;7.90;84.00;8.10;97912.00;;;;5022381;28;20225;-84
2022/01/23 07:24:23;;;;;;;14.93;12.17;;;7.90;84.10;8.10;97909.00;;;;5034631;28;20189;-85
2022/01/23 07:26:50;;;;;;;16.50;11.33;;;7.90;84.30;8.20;97923.00;;;;5034460;28;20201;-85
2022/01/23 07:29:18;;;;;;;16.97;11.93;;;7.90;84.20;8.20;97934.00;;;;5048876;28;20216;-86
2022/01/23 07:31:57;;;;;;;15.47;11.37;;;7.90;84.20;8.20;97933.00;;;;5053029;28;20211;-84
2022/01/23 07:34:25;;;;;;;14.80;10.87;;;8.00;84.30;8.30;97943.00;;;;5043227;28;20200;-85
2022/01/23 07:36:54;;;;;;;13.47;9.73;;;8.00;84.40;8.30;97945.00;;;;5033290;28;20200;-85
2022/01/23 07:39:21;;;;;;;14.60;10.57;;;8.00;84.50;8.30;97959.00;;;;5032623;28;20209;-85
2022/01/23 07:41:48;;;;;;;14.23;10.10;;;8.50;84.70;8.40;97954.00;;;;5020534;28;20228;-85
2022/01/23 07:44:15;;;;;;;13.37;10.53;;;8.10;84.50;8.40;97957.00;;;;5019683;28;20204;-85
2022/01/23 07:46:42;;;;;;;15.93;11.53;;;8.10;84.40;8.40;97959.00;;;;5023017;28;20595;-85
2022/01/23 07:49:10;;;;;;;16.17;11.70;;;8.10;84.40;8.40;97953.00;;;;5026972;28;20222;-85
2022/01/23 07:51:37;;;;;;;17.93;12.17;;;8.10;84.50;8.50;97963.00;;;;5030214;28;20198;-85
2022/01/23 07:54:06;;;;;;;13.17;10.50;;;8.20;85.60;8.50;97966.00;;;;5026747;28;20748;-84
2022/01/23 07:56:33;;;;;;;15.33;10.63;;;8.20;84.60;8.50;97965.00;;;;5033686;28;20197;-85
2022/01/23 07:59:00;;;;;;;14.33;11.07;;;8.20;84.50;8.50;97964.00;;;;5032156;28;20581;-86
2022/01/23 08:01:27;;;;;;;16.70;11.93;;;8.30;84.70;8.60;97972.00;;;;5032789;28;20221;-85
2022/01/23 08:03:54;;;;;;;14.57;11.67;;;8.30;84.60;8.60;97973.00;;;;5032102;28;20194;-85
2022/01/23 08:06:28;;;;;;;15.00;10.80;;;8.30;84.40;8.60;97982.00;;;;5032188;28;20280;-85
2022/01/23 08:08:56;;;;;;;15.03;11.10;;;8.30;84.50;8.70;97980.00;;;;5032481;28;20221;-85
2022/01/23 08:11:25;;;;;;;17.03;12.17;;;8.40;84.40;8.70;97985.00;;;;5028269;28;20205;-87
2022/01/23 08:13:52;;;;;;;16.13;11.73;;;8.40;84.50;8.70;97986.00;;;;5018094;28;20201;-85
2022/01/23 08:16:19;;;;;;;15.63;11.50;;;8.40;84.40;8.70;97976.00;;;;5026762;28;20576;-83
2022/01/23 08:18:46;;;;;;;15.03;11.23;;;8.40;84.40;8.70;97986.00;;;;5031619;28;20211;-85
2022/01/23 08:21:13;;;;;;;18.27;11.63;;;8.50;84.50;8.80;97992.00;;;;5032146;28;20229;-85
2022/01/23 08:23:40;;;;;;;15.43;10.40;;;8.50;84.40;8.80;97991.00;;;;5032115;28;20201;-86
2022/01/23 08:26:07;;;;;;;19.07;12.80;;;8.50;84.30;8.80;97987.00;;;;5031722;28;20673;-84
2022/01/23 08:28:36;;;;;;;15.03;11.20;;;8.50;84.60;8.90;97990.00;;;;5031967;28;20212;-85
2022/01/23 08:31:03;;;;;;;15.77;10.80;;;8.60;84.20;8.90;97995.00;;;;5026088;28;20563;-84
2022/01/23 08:33:30;;;;;;;14.43;10.27;;;8.60;84.40;8.90;97986.00;;;;5031592;28;20207;-86
2022/01/23 08:35:58;;;;;;;16.57;10.73;;;8.60;84.30;9.00;97988.00;;;;5025560;28;20288;-86
2022/01/23 08:38:26;;;;;;;16.20;11.77;;;8.60;84.50;9.00;97980.00;;;;5027799;28;20193;-84
2022/01/23 08:43:53;;;;;;;17.60;11.27;;;8.70;84.60;9.10;97987.00;;;;4970837;28;20274;-85
2022/01/23 08:46:20;;;;;;;16.63;12.07;;;8.80;84.70;9.10;97982.00;;;;4986999;28;20618;-84
2022/01/23 08:48:47;;;;;;;16.10;11.63;;;8.80;84.80;9.10;97979.00;;;;5007558;28;20229;-85
2022/01/23 08:51:14;;;;;;;16.70;12.03;;;8.80;84.30;9.20;97982.00;;;;5031478;28;20308;-85
2022/01/23 08:53:41;;;;;;;17.23;11.23;;;8.80;84.20;9.20;97975.00;;;;5016951;28;20194;-85
2022/01/23 08:56:09;;;;;;;17.63;12.30;;;8.80;85.20;9.20;97981.00;;;;5012096;28;20214;-85
2022/01/23 08:58:36;;;;;;;15.53;10.97;;;8.90;84.40;9.30;97984.00;;;;5025669;28;20227;-85
2022/01/23 09:01:04;;;;;;;15.33;11.57;;;8.90;84.80;9.30;97983.00;;;;5031701;28;20224;-85
2022/01/23 09:03:31;;;;;;;16.77;11.67;;;8.90;84.30;9.30;97996.00;;;;5018112;28;20644;-85
2022/01/23 09:05:58;;;;;;;17.67;11.93;;;8.90;84.20;9.40;97987.00;;;;5013236;28;20578;-84
2022/01/23 09:08:25;;;;;;;15.80;11.43;;;9.00;84.40;9.40;97987.00;;;;5011769;28;20204;-84
2022/01/23 09:10:55;;;;;;;13.53;10.83;;;9.00;83.90;9.40;97991.00;;;;5012413;28;20212;-84
2022/01/23 09:13:51;;;;;;;15.70;11.53;;;9.00;84.00;9.50;97988.00;;;;5018389;28;20534;-85
2022/01/23 09:16:20;;;;;;;14.87;10.80;;;9.10;84.20;9.50;97990.00;;;;5020501;28;20646;-85
2022/01/23 09:18:48;;;;;;;17.80;11.70;;;9.10;84.40;9.60;97995.00;;;;5032139;28;20230;-85
2022/01/23 09:21:15;;;;;;;14.87;11.33;;;9.20;84.40;9.60;97990.00;;;;5043131;28;20213;-84
2022/01/23 09:23:42;;;;;;;17.07;11.53;;;9.20;85.20;9.70;97991.00;;;;5051308;28;20193;-85
2022/01/23 09:26:13;;;;;;;14.63;11.30;;;9.20;84.30;9.70;97984.00;;;;5034320;28;20197;-84
2022/01/23 09:28:43;;;;;;;15.70;11.40;;;9.30;84.20;9.70;97991.00;;;;5016857;28;20206;-84
2022/01/23 09:31:12;;;;;;;14.73;10.63;;;9.30;84.50;9.80;97993.00;;;;5024787;28;20199;-84
2022/01/23 09:33:40;;;;;;;15.83;12.00;;;9.30;84.40;9.80;97989.00;;;;5027599;28;20202;-84
2022/01/23 09:36:08;;;;;;;15.43;11.73;;;9.40;84.60;9.90;97995.00;;;;5026679;28;20195;-83
2022/01/23 09:38:35;;;;;;;16.17;11.73;;;9.40;84.50;9.90;97999.00;;;;5033530;28;20197;-84
2022/01/23 09:41:04;;;;;;;15.90;11.23;;;9.40;84.20;9.90;98003.00;;;;5038550;28;20220;-85
2022/01/23 09:43:33;;;;;;;15.97;12.23;;;9.50;84.10;10.00;98000.00;;;;5036824;28;20193;-85
2022/01/23 09:46:05;;;;;;;17.93;11.43;;;9.50;84.30;10.00;98004.00;;;;5037073;28;20201;-84
2022/01/23 09:48:34;;;;;;;14.97;11.30;;;9.50;84.10;10.10;98001.00;;;;5036290;28;20236;-85
2022/01/23 09:51:04;;;;;;;16.20;12.10;;;9.60;83.90;10.10;98000.00;;;;5036194;28;20190;-85
2022/01/23 09:53:32;;;;;;;18.30;11.40;;;9.60;83.80;10.20;98003.00;;;;5037525;28;20205;-85
2022/01/23 09:56:05;;;;;;;14.93;11.27;;;9.70;84.30;10.20;98004.00;;;;5035017;28;20569;-85
2022/01/23 09:58:33;;;;;;;14.77;11.03;;;9.70;83.80;10.20;98003.00;;;;5037005;28;20233;-85
2022/01/23 10:01:01;;;;;;;14.20;10.40;;;9.70;84.00;10.30;97997.00;;;;5038413;28;20229;-85
2022/01/23 10:03:28;;;;;;;15.13;11.23;;;9.80;84.10;10.30;98014.00;;;;5038995;28;20208;-85
2022/01/23 10:05:57;;;;;;;16.07;10.70;;;9.80;84.90;10.30;98017.00;;;;5051631;28;20201;-85
2022/01/23 10:08:28;;;;;;;13.67;10.67;;;9.80;84.10;10.40;98007.00;;;;5047042;28;20201;-84
2022/01/23 10:10:56;;;;;;;13.67;10.93;;;9.90;83.80;10.40;98005.00;;;;5041599;28;20654;-85
2022/01/23 10:13:26;;;;;;;15.83;11.20;;;9.90;83.90;10.50;97999.00;;;;5041888;28;20244;-85
2022/01/23 10:15:54;;;;;;;14.53;10.63;;;10.00;84.00;10.60;98006.00;;;;5033239;28;20189;-85
2022/01/23 10:18:21;;;;;;;13.33;10.37;;;10.00;84.00;10.60;97994.00;;;;5041757;28;20189;-83
2022/01/23 10:20:48;;;;;;;14.67;10.53;;;10.10;83.90;10.70;97993.00;;;;5043307;28;20231;-85
2022/01/23 10:23:16;;;;;;;14.20;10.60;;;10.10;84.30;10.70;97998.00;;;;5037063;28;20193;-85
2022/01/23 10:25:47;;;;;;;11.27;9.37;;;10.20;84.20;10.80;97998.00;;;;5043513;28;20272;-85
2022/01/23 10:28:18;;;;;;;12.43;9.60;;;10.20;83.90;10.80;97991.00;;;;5036065;28;20224;-85
2022/01/23 10:30:50;;;;;;;15.53;11.00;;;10.30;83.80;10.90;98002.00;;;;5034254;28;20307;-85
2022/01/23 10:33:21;;;;;;;10.50;8.63;;;10.30;83.90;10.90;97995.00;;;;5027184;28;20655;-85
2022/01/23 10:36:02;;;;;;;13.27;9.27;;;10.40;83.50;10.90;97998.00;;;;5036332;28;20193;-86
2022/01/23 10:38:33;;;;;;;12.53;8.70;;;10.40;82.40;10.90;97998.00;;;;5038091;28;20197;-85
2022/01/23 10:41:25;;;;;;;12.27;9.60;;;10.50;83.50;10.90;98003.00;;;;5032336;28;20221;-83
2022/01/23 10:50:09;;;;;;;11.37;8.70;;;10.60;82.20;10.90;97992.00;;;;5008753;28;20678;-86
2022/01/23 10:52:40;;;;;;;12.23;8.97;;;10.50;82.80;10.90;97993.00;;;;5043479;28;20201;-86
2022/01/23 10:55:25;;;;;;;13.67;9.67;;;10.50;83.00;11.00;97996.00;;;;5035598;28;20204;-86
2022/01/23 10:57:57;;;;;;;13.30;9.10;;;10.50;82.90;11.00;98004.00;;;;5022265;28;20201;-86
2022/01/23 11:00:28;;;;;;;11.03;8.60;;;10.50;82.60;11.00;97994.00;;;;5071597;22;20229;-85
2022/01/23 11:02:57;;;;;;;12.70;9.77;;;10.50;82.40;11.00;98003.00;;;;5064315;28;20216;-85
2022/01/23 11:05:32;;;;;;;12.93;9.53;;;10.60;83.00;11.00;98007.00;;;;5073598;28;20200;-85
2022/01/23 11:07:59;;;;;;;12.60;9.83;;;10.60;82.50;11.00;97999.00;;;;5074065;28;20668;-85
2022/01/23 11:10:27;;;;;;;11.50;8.70;;;10.60;82.70;11.10;97995.00;;;;5069595;28;20736;-85
2022/01/23 11:18:39;;;;;;;10.57;8.80;;;10.60;82.90;11.20;97985.00;;;;5040502;28;20212;-85
2022/01/23 11:21:21;;;;;;;11.53;9.00;;;10.70;82.50;11.20;97979.00;;;;5037398;28;20303;-85
2022/01/23 11:23:57;;;;;;;11.23;9.10;;;10.70;82.20;11.20;97979.00;;;;5055418;28;20650;-86
2022/01/23 11:26:28;;;;;;;10.40;8.30;;;10.70;82.60;11.20;97987.00;;;;5060054;28;20197;-85
2022/01/23 11:28:57;;;;;;;10.73;7.83;;;10.70;82.90;11.30;97993.00;;;;5058691;28;20197;-85
2022/01/23 11:31:24;;;;;;;11.43;8.40;;;10.70;82.40;11.30;97988.00;;;;5062072;28;20887;-85
2022/01/23 11:33:52;;;;;;;10.20;7.97;;;10.80;82.10;11.20;97983.00;;;;5081716;28;20302;-85
2022/01/23 11:36:21;;;;;;;9.13;7.70;;;10.70;81.90;11.20;97984.00;;;;5074958;28;20628;-85
2022/01/23 11:38:50;;;;;;;12.93;8.97;;;10.80;81.90;11.10;97989.00;;;;5079877;28;20449;-85
2022/01/23 11:55:34;;;;;;;9.93;7.80;;;10.70;81.90;11.10;97968.00;;;;4951364;28;20208;-86
2022/01/23 11:58:03;;;;;;;9.07;7.53;;;10.70;81.80;11.10;97971.00;;;;4954757;28;20214;-86
2022/01/23 12:00:35;;;;;;;10.10;8.57;;;10.60;81.80;11.10;97978.00;;;;5015895;28;20224;-86
2022/01/23 12:03:15;;;;;;;10.57;8.70;;;10.60;81.80;11.10;97969.00;;;;5055148;28;20212;-86
2022/01/23 12:05:44;;;;;;;11.30;8.57;;;10.70;81.50;11.10;97969.00;;;;5054091;28;20288;-86
2022/01/23 12:08:34;;;;;;;10.93;8.47;;;10.60;81.60;11.00;97972.00;;;;5054395;28;20228;-86
2022/01/23 12:17:17;;;;;;;12.23;9.40;;;10.70;80.60;11.00;97966.00;;;;5041946;28;20211;-86
2022/01/23 12:19:52;;;;;;;10.63;7.83;;;10.70;82.30;11.10;97977.00;;;;5061812;28;20325;-85
2022/01/23 12:22:53;;;;;;;10.20;8.17;;;10.70;81.90;11.00;97979.00;;;;5060946;28;20216;-85
2022/01/23 12:25:30;;;;;;;9.07;7.70;;;10.70;80.90;11.00;97973.00;;;;5047928;28;20196;-86
2022/01/23 12:28:32;;;;;;;10.70;8.10;;;10.70;82.50;11.10;97972.00;;;;5052063;28;20209;-85
2022/01/23 12:31:18;;;;;;;10.10;7.77;;;10.60;81.30;11.10;97980.00;;;;4992278;28;20306;-85
2022/01/23 12:33:50;;;;;;;9.10;7.27;;;10.70;82.10;11.00;97978.00;;;;5001801;28;20210;-85
2022/01/23 12:36:24;;;;;;;8.50;7.17;;;10.70;81.30;11.10;97972.00;;;;5030098;28;20197;-87
2022/01/23 12:38:55;;;;;;;9.57;7.60;;;10.70;81.20;11.10;97970.00;;;;5053433;28;20234;-83
2022/01/23 12:41:33;;;;;;;9.50;7.90;;;10.70;81.50;11.10;97969.00;;;;5054830;28;20196;-85
2022/01/23 12:44:05;;;;;;;9.27;7.53;;;10.70;81.20;11.10;97968.00;;;;5053523;28;20205;-85
2022/01/23 12:46:38;;;;;;;9.73;7.47;;;10.70;81.40;11.10;97963.00;;;;5052200;28;20205;-84
2022/01/23 12:49:27;;;;;;;10.10;8.40;;;10.70;81.20;11.10;97963.00;;;;5054428;28;20188;-85
2022/01/23 12:52:14;;;;;;;9.77;7.87;;;10.70;80.20;11.10;97961.00;;;;5066635;28;20200;-85
2022/01/23 12:55:04;;;;;;;9.27;7.73;;;10.70;80.90;11.10;97962.00;;;;5054385;28;20203;-86
2022/01/23 12:57:37;;;;;;;10.83;8.33;;;10.70;80.90;11.10;97951.00;;;;5060936;28;20196;-85
2022/01/23 13:00:11;;;;;;;8.60;7.23;;;11.00;81.80;11.00;97959.00;;;;5052306;28;20274;-85
2022/01/23 13:02:44;;;;;;;9.90;7.87;;;10.70;80.80;11.00;97962.00;;;;5053401;28;20212;-85
2022/01/23 13:05:14;;;;;;;9.10;7.27;;;10.70;80.70;11.00;97960.00;;;;5052777;28;20720;-86
2022/01/23 13:08:01;;;;;;;9.67;7.97;;;10.70;81.40;11.00;97958.00;;;;5051099;28;20295;-85
2022/01/23 13:10:50;;;;;;;9.23;6.90;;;10.70;81.60;11.10;97960.00;;;;5032055;28;20225;-85
2022/01/23 13:13:33;;;;;;;10.57;7.90;;;10.80;81.00;11.10;97963.00;;;;5049831;28;20200;-86
2022/01/23 13:16:20;;;;;;;9.83;8.00;;;10.70;81.70;11.20;97966.00;;;;5050781;28;20197;-85
2022/01/23 13:19:19;;;;;;;9.90;7.93;;;10.90;81.80;11.20;97958.00;;;;5048599;28;20643;-85
2022/01/23 13:28:02;;;;;;;9.33;6.93;;;10.70;81.70;11.20;97942.00;;;;5072513;28;20203;-84
2022/01/23 13:30:21;;;;;;;8.70;6.87;;;10.70;82.10;11.20;97943.00;;;;5053935;28;20305;-85
2022/01/23 13:32:51;;;;;;;9.77;7.20;;;10.70;81.70;11.20;97943.00;;;;5056373;28;20231;-85
2022/01/23 13:35:22;;;;;;;8.47;6.77;;;10.70;81.70;11.20;97941.00;;;;5056432;28;20610;-85
2022/01/23 13:37:56;;;;;;;7.83;6.33;;;10.70;81.00;11.20;97929.00;;;;5052144;28;20201;-85
2022/01/23 13:40:34;;;;;;;7.90;6.43;;;10.70;81.00;11.20;97927.00;;;;5054754;28;20212;-85
2022/01/23 13:57:34;;;;;;;8.07;6.90;;;10.70;80.80;11.10;97931.00;;;;5043361;28;20204;-86
2022/01/23 14:00:00;;;;;;;8.53;6.63;;;10.70;80.80;11.10;97926.00;;;;5059335;28;20235;-86
2022/01/23 14:02:32;;;;;;;9.33;6.53;;;10.70;81.20;11.10;97929.00;;;;5047372;28;20220;-86